• Join FlightAware (Why Join?)
  • Login
  • US Flag 
12:31PM EDT


 

Airport Tracker/Info


-or-


 

Live Flight TrackerFlight Track Log ✈ QXE11 ✈ 25-Apr-2012 ✈ KSEA - KMFR

Flight Track Log - Related Links

Times and Time Zones

All times are in EDT time to prevent confusion due to time zone crossing. See the QXE11 flight status page for this flight to view local times or setup timezone preferences in your user account.

Time Position Orientation Groundspeed Altitude Reporting Facility
EDT Latitude Longitude Course Direction KTS MPH feet Rate Location/Type
01:24PM 47.4436 -122.3089 182° South 119 137 1,000  Level Seattle Center
01:26PM 47.3883 -122.3117 182° South 158 182 3,600 1,860 Climbing Seattle Center
01:27PM 47.3386 -122.3136 187° South 176 203 5,700 2,040 Climbing Seattle Center
01:28PM 47.2850 -122.3239 188° South 196 226 7,800 1,860 Climbing Seattle Center
01:29PM 47.2278 -122.3356 188° South 203 234 9,600 1,560 Climbing Seattle Center
01:30PM 47.1667 -122.3483 187° South 226 260 11,000 1,620 Climbing Seattle Center
01:31PM 47.0869 -122.3633 188° South 242 278 12,900 1,620 Climbing Seattle Center
01:32PM 47.0203 -122.3764 187° South 244 281 14,400 1,380 Climbing Seattle Center
01:33PM 46.9525 -122.3889 187° South 247 284 15,800 1,320 Climbing Seattle Center
01:34PM 46.8861 -122.4014 189° South 244 281 17,200 1,320 Climbing Seattle Center
01:35PM 46.8206 -122.4158 189° South 241 277 18,600 1,320 Climbing Seattle Center
01:36PM 46.7567 -122.4308 182° South 238 274 19,900 1,080 Climbing Seattle Center
01:37PM 46.6886 -122.4350 187° South 241 277 20,900 840 Climbing Seattle Center
01:38PM 46.6217 -122.4472 187° South 244 281 21,700 780 Climbing Seattle Center
01:39PM 46.5414 -122.4606 189° South 244 281 22,600 600 Climbing Seattle Center
01:40PM 46.4747 -122.4761 188° South 245 282 23,000 180 Climbing Seattle Center
01:41PM 46.4178 -122.4883 187° South 253 291 23,000  Level Seattle Center
01:42PM 46.3256 -122.5047 183° South 273 314 23,000  Level Seattle Center
01:43PM 46.2444 -122.5117 186° South 287 330 23,000 -60 Level Seattle Center
01:44PM 46.1619 -122.5236 186° South 285 328 22,900  Descending Seattle Center
01:45PM 46.0833 -122.5361 187° South 285 328 23,000  Climbing Seattle Center
01:46PM 46.0058 -122.5497 187° South 282 325 23,000 -60 Level Seattle Center
01:47PM 45.9281 -122.5628 186° South 282 325 22,900 -60 Descending Seattle Center
01:48PM 45.8497 -122.5742 186° South 281 323 22,900  Level Seattle Center
01:49PM 45.7728 -122.5864 186° South 280 322 23,000  Climbing Seattle Center
01:50PM 45.6803 -122.6003 183° South 279 321 23,000  Level Seattle Center
01:51PM 45.6022 -122.6053 184° South 279 321 23,000  Level Seattle Center
01:52PM 45.5236 -122.6139 184° South 281 323 23,000  Level Seattle Center
01:53PM 45.4458 -122.6225 184° South 281 323 23,000  Level Seattle Center
01:54PM 45.3672 -122.6303 185° South 282 325 23,000  Level Seattle Center
01:55PM 45.2886 -122.6392 184° South 283 326 23,000 -60 Level Seattle Center
01:56PM 45.2083 -122.6481 183° South 286 329 22,900  Descending Seattle Center
01:57PM 45.1281 -122.6544 184° South 287 330 23,000  Climbing Seattle Center
01:58PM 45.0481 -122.6631 185° South 287 330 23,000  Level Seattle Center
01:59PM 44.9683 -122.6725 183° South 287 330 23,000  Level Seattle Center
02:00PM 44.8872 -122.6794 184° South 289 333 23,000 -60 Level Seattle Center
02:01PM 44.8064 -122.6867 184° South 290 334 22,900  Descending Seattle Center
02:02PM 44.7097 -122.6964 184° South 290 334 23,000  Climbing Seattle Center
02:03PM 44.6292 -122.7053 184° South 289 333 23,000  Level Seattle Center
02:04PM 44.5486 -122.7131 183° South 290 334 23,000  Level Seattle Center
02:05PM 44.4681 -122.7197 184° South 290 334 23,000  Level Seattle Center
02:06PM 44.3889 -122.7283 184° South 286 329 23,000  Level Seattle Center
02:07PM 44.3089 -122.7358 184° South 288 331 23,000  Level Seattle Center
02:08PM 44.2283 -122.7436 184° South 288 331 23,000  Level Seattle Center
02:09PM 44.1481 -122.7514 184° South 288 331 23,000  Level Seattle Center
02:10PM 44.0686 -122.7594 187° South 287 330 23,000  Level Seattle Center
02:11PM 43.9883 -122.7731 188° South 288 331 23,000  Level Seattle Center
02:12PM 43.9089 -122.7883 188° South 288 331 23,000  Level Seattle Center
02:14PM 43.8300 -122.8031 187° South 286 329 23,000  Level Seattle Center
02:15PM 43.7344 -122.8200 188° South 287 330 23,000  Level Seattle Center
02:16PM 43.6561 -122.8344 187° South 285 328 23,000  Level Seattle Center
02:17PM 43.5772 -122.8481 188° South 284 327 23,000  Level Seattle Center
02:18PM 43.4989 -122.8625 188° South 284 327 23,000  Level Seattle Center
02:19PM 43.4200 -122.8786 188° South 285 328 23,000  Level Seattle Center
02:20PM 43.3422 -122.8931 188° South 284 327 23,000 -180 Level Seattle Center
02:21PM 43.2639 -122.9075 186° South 283 326 22,700 -1,260 Descending Seattle Center
02:22PM 43.1806 -122.9203 188° South 294 338 20,500 -2,160 Descending Seattle Center
02:23PM 43.0911 -122.9372 187° South 315 362 18,300 -2,160 Descending Seattle Center
02:24PM 43.0039 -122.9525 188° South 317 365 16,100 -2,160 Descending Seattle Center
02:25PM 42.9208 -122.9678 188° South 306 352 14,000 -2,040 Descending Seattle Center
02:26PM 42.8422 -122.9822 186° South 293 337 12,000 -2,040 Descending Seattle Center
02:27PM 42.7592 -122.9936 189° South 252 290 9,900 -1,860 Descending Seattle Center
02:28PM 42.6978 -123.0064 185° South 230 265 8,300 -1,560 Descending Seattle Center
02:29PM 42.6381 -123.0139 158° South 221 254 6,800 -1,440 Descending Seattle Center
02:30PM 42.5811 -122.9833 158° South 223 257 5,400 -1,320 Descending Seattle Center
02:31PM 42.5247 -122.9519 160° South 223 257 4,200 -1,080 Descending Seattle Center
02:32PM 42.4736 -122.9264 163° South 211 243 3,200 -660 Descending Seattle Center
02:33PM 42.4286 -122.9075 163° South 202 232 2,900 -300 Descending Seattle Center